sensor_id;sensor_type;location;lat;lon;timestamp;pressure;altitude;pressure_sealevel;temperature;humidity
60918;BME280;46792;38.854;-9.384;2023-02-18T00:00:52;100242.94;;;13.68;51.58
60918;BME280;46792;38.854;-9.384;2023-02-18T00:03:11;100251.88;;;13.74;51.42
60918;BME280;46792;38.854;-9.384;2023-02-18T00:05:12;100246.19;;;13.71;51.41
60918;BME280;46792;38.854;-9.384;2023-02-18T00:07:13;100249.41;;;13.73;51.62
60918;BME280;46792;38.854;-9.384;2023-02-18T00:09:14;100249.41;;;13.73;51.54
60918;BME280;46792;38.854;-9.384;2023-02-18T00:11:33;100246.72;;;13.73;51.70
60918;BME280;46792;38.854;-9.384;2023-02-18T00:13:34;100250.53;;;13.77;51.74
60918;BME280;46792;38.854;-9.384;2023-02-18T00:15:35;100244.56;;;13.80;51.84
60918;BME280;46792;38.854;-9.384;2023-02-18T00:17:36;100242.38;;;13.77;51.76
60918;BME280;46792;38.854;-9.384;2023-02-18T00:19:37;100241.88;;;13.85;51.31
60918;BME280;46792;38.854;-9.384;2023-02-18T00:21:37;100248.69;;;13.93;51.17
60918;BME280;46792;38.854;-9.384;2023-02-18T00:23:57;100249.22;;;13.90;51.32
60918;BME280;46792;38.854;-9.384;2023-02-18T00:25:59;100256.00;;;13.92;51.58
60918;BME280;46792;38.854;-9.384;2023-02-18T00:28:00;100247.56;;;13.83;51.24
60918;BME280;46792;38.854;-9.384;2023-02-18T00:30:01;100254.38;;;13.86;51.04
60918;BME280;46792;38.854;-9.384;2023-02-18T00:32:03;100253.81;;;13.84;51.09
60918;BME280;46792;38.854;-9.384;2023-02-18T00:34:07;100250.00;;;13.90;51.03
60918;BME280;46792;38.854;-9.384;2023-02-18T00:36:10;100247.28;;;13.90;50.93
60918;BME280;46792;38.854;-9.384;2023-02-18T00:38:12;100241.09;;;13.95;50.20
60918;BME280;46792;38.854;-9.384;2023-02-18T00:40:31;100238.66;;;14.04;50.16
60918;BME280;46792;38.854;-9.384;2023-02-18T00:42:32;100245.69;;;13.99;49.96
60918;BME280;46792;38.854;-9.384;2023-02-18T00:44:33;100245.97;;;14.08;50.08
60918;BME280;46792;38.854;-9.384;2023-02-18T00:46:34;100247.88;;;14.03;50.03
60918;BME280;46792;38.854;-9.384;2023-02-18T00:48:35;100253.31;;;14.03;49.95
60918;BME280;46792;38.854;-9.384;2023-02-18T00:50:36;100254.63;;;14.00;49.99
60918;BME280;46792;38.854;-9.384;2023-02-18T00:52:36;100256.81;;;13.98;50.05
60918;BME280;46792;38.854;-9.384;2023-02-18T00:54:37;100261.16;;;14.04;50.00
60918;BME280;46792;38.854;-9.384;2023-02-18T00:56:39;100257.66;;;14.04;50.10
60918;BME280;46792;38.854;-9.384;2023-02-18T00:58:39;100254.91;;;13.98;50.21
60918;BME280;46792;38.854;-9.384;2023-02-18T01:00:40;100253.31;;;14.03;50.12
60918;BME280;46792;38.854;-9.384;2023-02-18T01:03:00;100257.09;;;14.02;50.17
60918;BME280;46792;38.854;-9.384;2023-02-18T01:05:00;100250.31;;;14.04;49.91
60918;BME280;46792;38.854;-9.384;2023-02-18T01:07:01;100253.84;;;13.99;49.74
60918;BME280;46792;38.854;-9.384;2023-02-18T01:09:03;100236.19;;;13.92;50.36
60918;BME280;46792;38.854;-9.384;2023-02-18T01:11:04;100246.75;;;13.93;50.08
60918;BME280;46792;38.854;-9.384;2023-02-18T01:13:05;100242.16;;;13.94;50.37
60918;BME280;46792;38.854;-9.384;2023-02-18T01:15:06;100241.34;;;13.93;50.35
60918;BME280;46792;38.854;-9.384;2023-02-18T01:17:07;100247.03;;;13.92;50.27
60918;BME280;46792;38.854;-9.384;2023-02-18T01:19:11;100244.56;;;13.90;50.54
60918;BME280;46792;38.854;-9.384;2023-02-18T01:21:12;100238.34;;;13.90;50.40
60918;BME280;46792;38.854;-9.384;2023-02-18T01:23:13;100235.88;;;13.88;50.53
60918;BME280;46792;38.854;-9.384;2023-02-18T01:25:14;100238.09;;;13.86;50.35
60918;BME280;46792;38.854;-9.384;2023-02-18T01:29:52;100243.50;;;13.86;50.44
60918;BME280;46792;38.854;-9.384;2023-02-18T01:32:02;100238.63;;;13.83;50.70
60918;BME280;46792;38.854;-9.384;2023-02-18T01:34:03;100237.25;;;13.86;50.42
60918;BME280;46792;38.854;-9.384;2023-02-18T01:36:04;100241.31;;;13.83;50.38
60918;BME280;46792;38.854;-9.384;2023-02-18T01:38:05;100244.03;;;13.83;50.50
60918;BME280;46792;38.854;-9.384;2023-02-18T01:40:06;100241.59;;;13.87;50.50
60918;BME280;46792;38.854;-9.384;2023-02-18T01:42:21;100246.50;;;13.90;50.48
60918;BME280;46792;38.854;-9.384;2023-02-18T01:44:27;100239.16;;;13.85;50.54
60918;BME280;46792;38.854;-9.384;2023-02-18T01:46:28;100244.59;;;13.85;50.46
60918;BME280;46792;38.854;-9.384;2023-02-18T01:48:33;100247.84;;;13.87;50.69
60918;BME280;46792;38.854;-9.384;2023-02-18T01:50:39;100237.78;;;13.82;50.99
60918;BME280;46792;38.854;-9.384;2023-02-18T01:52:41;100231.81;;;13.80;50.82
60918;BME280;46792;38.854;-9.384;2023-02-18T01:54:45;100233.16;;;13.78;50.99
60918;BME280;46792;38.854;-9.384;2023-02-18T01:59:07;100228.81;;;13.77;50.99
60918;BME280;46792;38.854;-9.384;2023-02-18T02:01:09;100236.41;;;13.75;50.95
60918;BME280;46792;38.854;-9.384;2023-02-18T02:03:10;100235.59;;;13.74;50.93
60918;BME280;46792;38.854;-9.384;2023-02-18T02:05:11;100236.97;;;13.77;50.65
60918;BME280;46792;38.854;-9.384;2023-02-18T02:07:32;100229.34;;;13.68;51.08
60918;BME280;46792;38.854;-9.384;2023-02-18T02:09:33;100239.41;;;13.73;51.06
60918;BME280;46792;38.854;-9.384;2023-02-18T02:15:51;100241.56;;;13.71;51.26
60918;BME280;46792;38.854;-9.384;2023-02-18T02:36:39;100227.97;;;13.61;51.92
60918;BME280;46792;38.854;-9.384;2023-02-18T02:39:18;100227.16;;;13.60;51.99
60918;BME280;46792;38.854;-9.384;2023-02-18T02:43:55;100211.97;;;13.54;52.36
60918;BME280;46792;38.854;-9.384;2023-02-18T02:56:03;100208.41;;;13.48;52.64
60918;BME280;46792;38.854;-9.384;2023-02-18T02:58:04;100211.38;;;13.47;52.70
60918;BME280;46792;38.854;-9.384;2023-02-18T03:00:09;100210.84;;;13.45;52.86
60918;BME280;46792;38.854;-9.384;2023-02-18T03:07:05;100211.38;;;13.42;53.14
60918;BME280;46792;38.854;-9.384;2023-02-18T03:11:31;100211.13;;;13.43;53.00
60918;BME280;46792;38.854;-9.384;2023-02-18T03:19:23;100196.75;;;13.53;53.72
60918;BME280;46792;38.854;-9.384;2023-02-18T03:21:38;100200.81;;;13.45;54.76
60918;BME280;46792;38.854;-9.384;2023-02-18T03:23:45;100198.66;;;13.47;55.60
60918;BME280;46792;38.854;-9.384;2023-02-18T03:25:49;100205.41;;;13.45;56.71
60918;BME280;46792;38.854;-9.384;2023-02-18T03:28:12;100195.63;;;13.38;57.07
60918;BME280;46792;38.854;-9.384;2023-02-18T03:30:37;100194.00;;;13.43;57.66
60918;BME280;46792;38.854;-9.384;2023-02-18T03:32:41;100194.28;;;13.41;57.48
60918;BME280;46792;38.854;-9.384;2023-02-18T03:35:06;100194.56;;;13.45;57.09
60918;BME280;46792;38.854;-9.384;2023-02-18T03:37:08;100202.13;;;13.37;57.00
60918;BME280;46792;38.854;-9.384;2023-02-18T03:39:19;100202.91;;;13.38;57.06
60918;BME280;46792;38.854;-9.384;2023-02-18T03:41:42;100192.91;;;13.38;55.90
60918;BME280;46792;38.854;-9.384;2023-02-18T03:43:54;100189.88;;;13.24;56.53
60918;BME280;46792;38.854;-9.384;2023-02-18T03:46:02;100190.16;;;13.23;56.63
60918;BME280;46792;38.854;-9.384;2023-02-18T03:48:03;100188.47;;;13.17;56.80
60918;BME280;46792;38.854;-9.384;2023-02-18T03:50:04;100187.13;;;13.14;56.95
60918;BME280;46792;38.854;-9.384;2023-02-18T03:52:05;100181.13;;;13.07;57.09
60918;BME280;46792;38.854;-9.384;2023-02-18T03:54:24;100186.03;;;13.10;57.25
60918;BME280;46792;38.854;-9.384;2023-02-18T03:56:24;100184.66;;;13.13;57.56
60918;BME280;46792;38.854;-9.384;2023-02-18T03:58:25;100186.81;;;13.11;57.42
60918;BME280;46792;38.854;-9.384;2023-02-18T04:00:25;100187.09;;;13.09;57.67
60918;BME280;46792;38.854;-9.384;2023-02-18T04:02:45;100178.13;;;13.03;57.90
60918;BME280;46792;38.854;-9.384;2023-02-18T04:04:45;100186.00;;;13.05;57.97
60918;BME280;46792;38.854;-9.384;2023-02-18T04:06:46;100181.38;;;13.00;58.13
60918;BME280;46792;38.854;-9.384;2023-02-18T04:08:47;100183.53;;;12.98;58.03
60918;BME280;46792;38.854;-9.384;2023-02-18T04:10:47;100181.34;;;12.95;57.76
60918;BME280;46792;38.854;-9.384;2023-02-18T04:12:48;100175.09;;;12.95;57.66
60918;BME280;46792;38.854;-9.384;2023-02-18T04:17:27;100172.13;;;12.91;56.81
60918;BME280;46792;38.854;-9.384;2023-02-18T04:19:46;100172.69;;;12.98;56.67
60918;BME280;46792;38.854;-9.384;2023-02-18T04:21:46;100171.88;;;12.98;56.65
60918;BME280;46792;38.854;-9.384;2023-02-18T04:23:47;100174.84;;;12.96;56.50
60918;BME280;46792;38.854;-9.384;2023-02-18T04:25:48;100178.09;;;12.98;56.54
60918;BME280;46792;38.854;-9.384;2023-02-18T04:27:48;100166.19;;;12.99;56.22
60918;BME280;46792;38.854;-9.384;2023-02-18T04:29:50;100160.22;;;12.97;56.24
60918;BME280;46792;38.854;-9.384;2023-02-18T04:31:50;100158.03;;;12.94;56.32
60918;BME280;46792;38.854;-9.384;2023-02-18T04:33:51;100147.69;;;12.86;56.63
60918;BME280;46792;38.854;-9.384;2023-02-18T04:35:51;100159.91;;;12.88;56.55
60918;BME280;46792;38.854;-9.384;2023-02-18T04:37:52;100152.56;;;12.84;56.70
60918;BME280;46792;38.854;-9.384;2023-02-18T04:39:53;100150.94;;;12.83;56.73
60918;BME280;46792;38.854;-9.384;2023-02-18T04:41:53;100154.72;;;12.82;56.83
60918;BME280;46792;38.854;-9.384;2023-02-18T04:43:54;100159.06;;;12.83;56.93
60918;BME280;46792;38.854;-9.384;2023-02-18T04:45:54;100160.97;;;12.82;56.96
60918;BME280;46792;38.854;-9.384;2023-02-18T04:47:55;100166.13;;;12.84;57.04
60918;BME280;46792;38.854;-9.384;2023-02-18T04:49:56;100165.03;;;12.85;56.90
60918;BME280;46792;38.854;-9.384;2023-02-18T04:51:56;100156.34;;;12.83;57.00
60918;BME280;46792;38.854;-9.384;2023-02-18T04:54:15;100166.41;;;12.87;56.96
60918;BME280;46792;38.854;-9.384;2023-02-18T04:56:34;100159.09;;;12.88;56.94
60918;BME280;46792;38.854;-9.384;2023-02-18T04:58:53;100165.59;;;12.92;56.78
60918;BME280;46792;38.854;-9.384;2023-02-18T05:03:35;100154.25;;;13.00;56.83
60918;BME280;46792;38.854;-9.384;2023-02-18T05:05:36;100164.03;;;13.01;56.96
60918;BME280;46792;38.854;-9.384;2023-02-18T05:07:39;100164.81;;;13.02;56.87
60918;BME280;46792;38.854;-9.384;2023-02-18T05:09:44;100164.81;;;13.02;56.82
60918;BME280;46792;38.854;-9.384;2023-02-18T05:11:47;100154.53;;;13.04;56.80
60918;BME280;46792;38.854;-9.384;2023-02-18T05:14:06;100151.81;;;13.04;56.83
60918;BME280;46792;38.854;-9.384;2023-02-18T05:16:25;100155.91;;;13.01;57.47
60918;BME280;46792;38.854;-9.384;2023-02-18T05:21:22;100158.31;;;12.98;58.02
60918;BME280;46792;38.854;-9.384;2023-02-18T05:23:51;100154.81;;;13.02;58.15
60918;BME280;46792;38.854;-9.384;2023-02-18T05:25:51;100156.97;;;13.00;58.21
60918;BME280;46792;38.854;-9.384;2023-02-18T05:27:52;100158.06;;;12.99;58.55
60918;BME280;46792;38.854;-9.384;2023-02-18T05:29:52;100159.41;;;12.97;58.53
60918;BME280;46792;38.854;-9.384;2023-02-18T05:31:56;100163.44;;;12.94;59.06
60918;BME280;46792;38.854;-9.384;2023-02-18T05:33:59;100168.84;;;12.94;59.32
60918;BME280;46792;38.854;-9.384;2023-02-18T05:36:03;100164.56;;;12.98;59.27
60918;BME280;46792;38.854;-9.384;2023-02-18T05:38:03;100174.03;;;13.01;59.32
60918;BME280;46792;38.854;-9.384;2023-02-18T05:40:23;100168.91;;;13.04;59.44
60918;BME280;46792;38.854;-9.384;2023-02-18T05:42:23;100152.34;;;13.01;59.85
60918;BME280;46792;38.854;-9.384;2023-02-18T05:44:24;100161.34;;;13.06;59.77
60918;BME280;46792;38.854;-9.384;2023-02-18T05:46:31;100167.28;;;13.03;59.65
60918;BME280;46792;38.854;-9.384;2023-02-18T05:48:34;100175.41;;;13.03;59.75
60918;BME280;46792;38.854;-9.384;2023-02-18T05:50:35;100171.88;;;13.03;59.91
60918;BME280;46792;38.854;-9.384;2023-02-18T05:52:36;100171.88;;;13.03;59.94
60918;BME280;46792;38.854;-9.384;2023-02-18T05:54:37;100173.19;;;12.95;59.67
60918;BME280;46792;38.854;-9.384;2023-02-18T05:56:56;100178.66;;;13.00;60.03
60918;BME280;46792;38.854;-9.384;2023-02-18T06:02:19;100180.25;;;12.96;59.83
60918;BME280;46792;38.854;-9.384;2023-02-18T06:04:20;100180.81;;;12.98;59.85
60918;BME280;46792;38.854;-9.384;2023-02-18T06:06:21;100186.75;;;12.95;60.08
60918;BME280;46792;38.854;-9.384;2023-02-18T06:08:22;100182.16;;;13.01;60.33
60918;BME280;46792;38.854;-9.384;2023-02-18T06:10:22;100185.16;;;12.99;60.53
60918;BME280;46792;38.854;-9.384;2023-02-18T06:12:23;100189.22;;;12.97;60.33
60918;BME280;46792;38.854;-9.384;2023-02-18T06:14:42;100190.03;;;12.97;60.83
60918;BME280;46792;38.854;-9.384;2023-02-18T06:16:43;100188.38;;;12.96;60.61
60918;BME280;46792;38.854;-9.384;2023-02-18T06:19:02;100179.69;;;12.94;60.67
60918;BME280;46792;38.854;-9.384;2023-02-18T06:26:19;100193.28;;;12.99;61.44
60918;BME280;46792;38.854;-9.384;2023-02-18T06:28:19;100182.44;;;12.99;61.51
60918;BME280;46792;38.854;-9.384;2023-02-18T06:30:20;100195.19;;;13.04;61.60
60918;BME280;46792;38.854;-9.384;2023-02-18T06:32:21;100193.00;;;12.96;62.35
60918;BME280;46792;38.854;-9.384;2023-02-18T06:34:21;100191.06;;;12.86;62.52
60918;BME280;46792;38.854;-9.384;2023-02-18T06:36:40;100190.81;;;12.92;62.70
60918;BME280;46792;38.854;-9.384;2023-02-18T06:39:02;100190.53;;;12.89;62.88
60918;BME280;46792;38.854;-9.384;2023-02-18T06:41:04;100188.63;;;12.89;62.84
60918;BME280;46792;38.854;-9.384;2023-02-18T06:43:23;100189.97;;;12.92;62.66
60918;BME280;46792;38.854;-9.384;2023-02-18T06:48:01;100200.81;;;12.87;62.81
60918;BME280;46792;38.854;-9.384;2023-02-18T06:50:02;100195.91;;;12.84;62.97
60918;BME280;46792;38.854;-9.384;2023-02-18T06:52:03;100195.13;;;12.83;63.37
60918;BME280;46792;38.854;-9.384;2023-02-18T06:54:04;100188.31;;;12.81;63.78
60918;BME280;46792;38.854;-9.384;2023-02-18T06:56:06;100188.03;;;12.77;63.92
60918;BME280;46792;38.854;-9.384;2023-02-18T06:58:06;100184.53;;;12.82;63.83
60918;BME280;46792;38.854;-9.384;2023-02-18T07:00:07;100196.16;;;12.77;63.62
60918;BME280;46792;38.854;-9.384;2023-02-18T07:02:11;100190.97;;;12.75;63.81
60918;BME280;46792;38.854;-9.384;2023-02-18T07:09:27;100188.75;;;12.62;63.86
60918;BME280;46792;38.854;-9.384;2023-02-18T07:11:28;100194.72;;;12.59;63.68
60918;BME280;46792;38.854;-9.384;2023-02-18T07:13:28;100187.66;;;12.58;63.63
60918;BME280;46792;38.854;-9.384;2023-02-18T07:15:29;100194.38;;;12.55;63.73
60918;BME280;46792;38.854;-9.384;2023-02-18T07:17:29;100187.09;;;12.56;63.87
60918;BME280;46792;38.854;-9.384;2023-02-18T07:19:30;100189.25;;;12.54;63.79
60918;BME280;46792;38.854;-9.384;2023-02-18T07:21:31;100192.25;;;12.57;63.73
60918;BME280;46792;38.854;-9.384;2023-02-18T07:23:31;100192.75;;;12.49;63.94
60918;BME280;46792;38.854;-9.384;2023-02-18T07:25:32;100191.34;;;12.46;64.02
60918;BME280;46792;38.854;-9.384;2023-02-18T07:27:32;100196.75;;;12.41;64.11
60918;BME280;46792;38.854;-9.384;2023-02-18T07:29:33;100186.94;;;12.35;64.33
60918;BME280;46792;38.854;-9.384;2023-02-18T07:31:34;100199.97;;;12.38;64.35
60918;BME280;46792;38.854;-9.384;2023-02-18T07:33:34;100197.25;;;12.38;64.41
60918;BME280;46792;38.854;-9.384;2023-02-18T07:35:35;100205.38;;;12.38;64.26
60918;BME280;46792;38.854;-9.384;2023-02-18T07:37:35;100205.91;;;12.35;64.47
60918;BME280;46792;38.854;-9.384;2023-02-18T07:39:40;100216.69;;;12.30;64.45
60918;BME280;46792;38.854;-9.384;2023-02-18T07:41:41;100217.00;;;12.34;64.23
60918;BME280;46792;38.854;-9.384;2023-02-18T07:44:02;100222.38;;;12.28;64.21
60918;BME280;46792;38.854;-9.384;2023-02-18T07:48:24;100218.81;;;12.23;64.43
60918;BME280;46792;38.854;-9.384;2023-02-18T07:50:44;100224.50;;;12.26;64.29
60918;BME280;46792;38.854;-9.384;2023-02-18T07:52:45;100221.25;;;12.24;64.44
60918;BME280;46792;38.854;-9.384;2023-02-18T07:54:45;100226.66;;;12.24;64.52
60918;BME280;46792;38.854;-9.384;2023-02-18T07:56:46;100224.22;;;12.23;64.43
60918;BME280;46792;38.854;-9.384;2023-02-18T07:58:47;100230.75;;;12.27;64.46
60918;BME280;46792;38.854;-9.384;2023-02-18T08:00:48;100229.88;;;12.21;64.49
60918;BME280;46792;38.854;-9.384;2023-02-18T08:02:49;100238.22;;;12.14;64.85
60918;BME280;46792;38.854;-9.384;2023-02-18T08:05:09;100241.19;;;12.13;65.00
60918;BME280;46792;38.854;-9.384;2023-02-18T08:07:14;100235.22;;;12.11;65.11
60918;BME280;46792;38.854;-9.384;2023-02-18T08:09:18;100245.22;;;12.10;64.80
60918;BME280;46792;38.854;-9.384;2023-02-18T08:11:18;100246.31;;;12.14;64.84
60918;BME280;46792;38.854;-9.384;2023-02-18T08:13:19;100245.25;;;12.15;64.38
60918;BME280;46792;38.854;-9.384;2023-02-18T08:15:19;100255.88;;;12.22;64.87
60918;BME280;46792;38.854;-9.384;2023-02-18T08:17:20;100255.88;;;12.22;64.87
60918;BME280;46792;38.854;-9.384;2023-02-18T08:19:22;100255.38;;;12.25;64.93
60918;BME280;46792;38.854;-9.384;2023-02-18T08:21:24;100253.50;;;12.26;65.08
60918;BME280;46792;38.854;-9.384;2023-02-18T08:23:25;100260.59;;;12.37;64.59
60918;BME280;46792;38.854;-9.384;2023-02-18T08:25:26;100257.84;;;12.32;64.69
60918;BME280;46792;38.854;-9.384;2023-02-18T08:27:27;100254.91;;;12.34;64.51
60918;BME280;46792;38.854;-9.384;2023-02-18T08:29:47;100260.84;;;12.36;64.57
60918;BME280;46792;38.854;-9.384;2023-02-18T08:31:47;100258.41;;;12.34;64.54
60918;BME280;46792;38.854;-9.384;2023-02-18T08:34:06;100261.97;;;12.40;64.43
60918;BME280;46792;38.854;-9.384;2023-02-18T08:36:08;100265.75;;;12.39;64.33
60918;BME280;46792;38.854;-9.384;2023-02-18T08:38:09;100263.91;;;12.44;64.37
60918;BME280;46792;38.854;-9.384;2023-02-18T08:40:11;100260.34;;;12.39;64.63
60918;BME280;46792;38.854;-9.384;2023-02-18T08:42:31;100260.34;;;12.39;64.49
60918;BME280;46792;38.854;-9.384;2023-02-18T08:44:32;100256.28;;;12.36;64.50
60918;BME280;46792;38.854;-9.384;2023-02-18T08:46:32;100256.31;;;12.41;64.35
60918;BME280;46792;38.854;-9.384;2023-02-18T08:56:09;100274.50;;;12.46;64.58
60918;BME280;46792;38.854;-9.384;2023-02-18T08:58:10;100282.91;;;12.50;64.68
60918;BME280;46792;38.854;-9.384;2023-02-18T09:00:11;100275.34;;;12.52;64.66
60918;BME280;46792;38.854;-9.384;2023-02-18T09:02:13;100281.63;;;12.57;64.68
60918;BME280;46792;38.854;-9.384;2023-02-18T09:04:14;100285.44;;;12.61;64.78
60918;BME280;46792;38.854;-9.384;2023-02-18T09:06:37;100281.44;;;12.69;64.77
60918;BME280;46792;38.854;-9.384;2023-02-18T09:08:38;100286.91;;;12.74;65.01
60918;BME280;46792;38.854;-9.384;2023-02-18T09:10:38;100292.06;;;12.76;65.31
60918;BME280;46792;38.854;-9.384;2023-02-18T09:12:39;100287.25;;;12.83;65.21
60918;BME280;46792;38.854;-9.384;2023-02-18T09:17:32;100288.09;;;12.94;65.27
60918;BME280;46792;38.854;-9.384;2023-02-18T09:19:36;100291.66;;;13.00;64.91
60918;BME280;46792;38.854;-9.384;2023-02-18T09:21:36;100284.41;;;13.05;65.00
60918;BME280;46792;38.854;-9.384;2023-02-18T09:23:37;100287.66;;;13.13;65.11
60918;BME280;46792;38.854;-9.384;2023-02-18T09:25:39;100290.97;;;13.20;64.83
60918;BME280;46792;38.854;-9.384;2023-02-18T09:27:39;100299.69;;;13.27;64.89
60918;BME280;46792;38.854;-9.384;2023-02-18T09:29:40;100304.63;;;13.35;65.08
60918;BME280;46792;38.854;-9.384;2023-02-18T09:31:41;100307.94;;;13.48;65.21
60918;BME280;46792;38.854;-9.384;2023-02-18T09:33:45;100303.88;;;13.50;65.21
60918;BME280;46792;38.854;-9.384;2023-02-18T09:35:46;100305.84;;;13.65;65.20
60918;BME280;46792;38.854;-9.384;2023-02-18T09:37:47;100308.03;;;13.68;65.10
60918;BME280;46792;38.854;-9.384;2023-02-18T09:39:47;100318.41;;;13.82;65.20
60918;BME280;46792;38.854;-9.384;2023-02-18T09:41:51;100314.06;;;13.86;65.41
60918;BME280;46792;38.854;-9.384;2023-02-18T09:43:56;100314.13;;;14.02;65.38
60918;BME280;46792;38.854;-9.384;2023-02-18T09:46:00;100316.81;;;14.07;65.15
60918;BME280;46792;38.854;-9.384;2023-02-18T09:48:31;100317.38;;;14.09;65.18
60918;BME280;46792;38.854;-9.384;2023-02-18T09:50:51;100326.63;;;14.18;64.87
60918;BME280;46792;38.854;-9.384;2023-02-18T09:52:52;100326.06;;;14.21;64.43
60918;BME280;46792;38.854;-9.384;2023-02-18T09:54:53;100314.44;;;14.26;64.81
60918;BME280;46792;38.854;-9.384;2023-02-18T09:56:54;100323.94;;;14.39;64.40
60918;BME280;46792;38.854;-9.384;2023-02-18T09:58:57;100338.59;;;14.43;64.06
60918;BME280;46792;38.854;-9.384;2023-02-18T10:03:29;100338.91;;;14.57;63.84
60918;BME280;46792;38.854;-9.384;2023-02-18T10:05:31;100329.66;;;14.63;62.83
60918;BME280;46792;38.854;-9.384;2023-02-18T10:07:32;100332.38;;;14.58;62.92
60918;BME280;46792;38.854;-9.384;2023-02-18T10:09:35;100338.09;;;14.67;62.67
60918;BME280;46792;38.854;-9.384;2023-02-18T10:11:42;100338.66;;;14.74;62.13
60918;BME280;46792;38.854;-9.384;2023-02-18T10:13:44;100334.84;;;14.85;61.32
60918;BME280;46792;38.854;-9.384;2023-02-18T10:15:45;100326.69;;;14.90;61.00
60918;BME280;46792;38.854;-9.384;2023-02-18T10:17:47;100336.19;;;14.93;61.83
60918;BME280;46792;38.854;-9.384;2023-02-18T10:20:07;100341.34;;;15.10;61.14
60918;BME280;46792;38.854;-9.384;2023-02-18T10:22:11;100341.59;;;15.14;60.75
60918;BME280;46792;38.854;-9.384;2023-02-18T10:24:32;100343.53;;;15.13;60.09
60918;BME280;46792;38.854;-9.384;2023-02-18T10:26:36;100350.03;;;15.17;59.61
60918;BME280;46792;38.854;-9.384;2023-02-18T10:28:37;100352.75;;;15.23;59.37
60918;BME280;46792;38.854;-9.384;2023-02-18T10:30:42;100353.81;;;15.21;59.54
60918;BME280;46792;38.854;-9.384;2023-02-18T10:32:47;100351.34;;;15.30;59.23
60918;BME280;46792;38.854;-9.384;2023-02-18T10:34:56;100347.81;;;15.35;59.24
60918;BME280;46792;38.854;-9.384;2023-02-18T10:39:31;100351.28;;;15.61;59.53
60918;BME280;46792;38.854;-9.384;2023-02-18T10:41:46;100357.47;;;15.77;58.91
60918;BME280;46792;38.854;-9.384;2023-02-18T10:44:09;100353.09;;;15.87;58.23
60918;BME280;46792;38.854;-9.384;2023-02-18T10:46:30;100363.66;;;15.99;58.05
60918;BME280;46792;38.854;-9.384;2023-02-18T10:51:11;100352.91;;;16.28;57.83
60918;BME280;46792;38.854;-9.384;2023-02-18T10:53:36;100351.72;;;16.39;57.34
60918;BME280;46792;38.854;-9.384;2023-02-18T10:55:45;100349.97;;;16.54;56.26
60918;BME280;46792;38.854;-9.384;2023-02-18T11:00:26;100340.84;;;16.69;56.35
60918;BME280;46792;38.854;-9.384;2023-02-18T11:02:30;100340.97;;;16.88;56.23
60918;BME280;46792;38.854;-9.384;2023-02-18T11:04:41;100345.28;;;16.94;56.22
60918;BME280;46792;38.854;-9.384;2023-02-18T11:06:46;100353.63;;;17.08;55.43
60918;BME280;46792;38.854;-9.384;2023-02-18T11:09:06;100345.06;;;17.20;54.43
60918;BME280;46792;38.854;-9.384;2023-02-18T11:11:24;100342.38;;;17.15;54.09
60918;BME280;46792;38.854;-9.384;2023-02-18T11:13:29;100342.88;;;17.22;54.46
60918;BME280;46792;38.854;-9.384;2023-02-18T11:15:34;100346.06;;;17.29;54.48
60918;BME280;46792;38.854;-9.384;2023-02-18T11:22:33;100342.06;;;17.46;53.65
60918;BME280;46792;38.854;-9.384;2023-02-18T11:24:37;100342.19;;;17.36;52.96
60918;BME280;46792;38.854;-9.384;2023-02-18T11:26:47;100342.19;;;17.36;53.59
60918;BME280;46792;38.854;-9.384;2023-02-18T11:28:49;100343.28;;;17.35;53.38
60918;BME280;46792;38.854;-9.384;2023-02-18T11:30:56;100330.31;;;17.21;53.44
60918;BME280;46792;38.854;-9.384;2023-02-18T11:33:19;100341.81;;;17.18;53.72
60918;BME280;46792;38.854;-9.384;2023-02-18T11:35:27;100340.22;;;17.12;53.46
60918;BME280;46792;38.854;-9.384;2023-02-18T11:37:31;100338.38;;;17.07;53.58
60918;BME280;46792;38.854;-9.384;2023-02-18T11:39:32;100335.06;;;17.10;53.62
60918;BME280;46792;38.854;-9.384;2023-02-18T11:42:03;100333.69;;;17.13;53.39
60918;BME280;46792;38.854;-9.384;2023-02-18T11:46:32;100333.59;;;17.23;53.61
60918;BME280;46792;38.854;-9.384;2023-02-18T11:48:33;100332.38;;;17.35;53.65
60918;BME280;46792;38.854;-9.384;2023-02-18T11:50:34;100333.28;;;17.49;53.22
60918;BME280;46792;38.854;-9.384;2023-02-18T11:52:38;100338.03;;;17.62;53.10
60918;BME280;46792;38.854;-9.384;2023-02-18T11:54:41;100332.97;;;17.75;52.71
60918;BME280;46792;38.854;-9.384;2023-02-18T11:56:57;100335.06;;;17.83;52.21
60918;BME280;46792;38.854;-9.384;2023-02-18T11:58:58;100335.13;;;17.97;52.19
60918;BME280;46792;38.854;-9.384;2023-02-18T12:01:02;100326.78;;;18.13;52.09
60918;BME280;46792;38.854;-9.384;2023-02-18T12:03:37;100328.16;;;18.29;51.79
60918;BME280;46792;38.854;-9.384;2023-02-18T12:05:43;100324.69;;;18.43;51.44
60918;BME280;46792;38.854;-9.384;2023-02-18T12:07:48;100318.25;;;18.52;51.22
60918;BME280;46792;38.854;-9.384;2023-02-18T12:10:00;100325.47;;;18.43;50.87
60918;BME280;46792;38.854;-9.384;2023-02-18T12:12:15;100315.41;;;18.58;51.07
60918;BME280;46792;38.854;-9.384;2023-02-18T12:14:19;100318.13;;;18.77;50.90
60918;BME280;46792;38.854;-9.384;2023-02-18T12:21:08;100305.94;;;19.44;49.05
60918;BME280;46792;38.854;-9.384;2023-02-18T12:23:40;100306.03;;;19.53;48.39
60918;BME280;46792;38.854;-9.384;2023-02-18T12:26:01;100307.13;;;19.66;49.12
60918;BME280;46792;38.854;-9.384;2023-02-18T12:32:38;100298.31;;;20.19;47.61
60918;BME280;46792;38.854;-9.384;2023-02-18T12:48:37;100283.03;;;20.50;46.79
60918;BME280;46792;38.854;-9.384;2023-02-18T13:13:01;100255.25;;;19.97;47.14
60918;BME280;46792;38.854;-9.384;2023-02-18T13:17:24;100237.91;;;19.88;48.12
60918;BME280;46792;38.854;-9.384;2023-02-18T13:19:28;100243.47;;;19.83;47.82
60918;BME280;46792;38.854;-9.384;2023-02-18T13:21:31;100232.94;;;19.76;47.85
60918;BME280;46792;38.854;-9.384;2023-02-18T13:33:32;100225.97;;;19.70;47.82